createdAt,value
2023-08-10T00:02:16.600Z,10.91
2023-08-10T00:04:44.260Z,11.40
2023-08-10T00:07:11.887Z,11.84
2023-08-10T00:09:39.460Z,11.87
2023-08-10T00:12:07.988Z,11.59
2023-08-10T00:14:35.634Z,11.78
2023-08-10T00:17:03.689Z,11.54
2023-08-10T00:19:32.741Z,11.10
2023-08-10T00:22:00.432Z,10.76
2023-08-10T00:24:28.157Z,10.60
2023-08-10T00:26:55.817Z,10.84
2023-08-10T00:29:23.572Z,11.01
2023-08-10T00:31:51.204Z,11.00
2023-08-10T00:34:18.800Z,10.98
2023-08-10T00:36:47.841Z,11.13
2023-08-10T00:39:15.456Z,10.91
2023-08-10T00:41:43.198Z,10.70
2023-08-10T00:44:10.765Z,10.61
2023-08-10T00:46:39.219Z,10.66
2023-08-10T00:49:07.048Z,10.60
2023-08-10T00:51:34.931Z,10.52
2023-08-10T00:54:04.448Z,10.47
2023-08-10T00:56:32.104Z,10.48
2023-08-10T00:58:59.990Z,10.23
2023-08-10T01:01:27.814Z,10.30
2023-08-10T01:03:55.503Z,10.40
2023-08-10T01:06:30.509Z,10.38
2023-08-10T01:09:04.800Z,10.27
2023-08-10T01:11:39.546Z,10.22
2023-08-10T01:14:14.910Z,10.10
2023-08-10T01:16:44.162Z,10.14
2023-08-10T01:19:25.243Z,10.12
2023-08-10T01:22:00.163Z,9.98
2023-08-10T01:24:32.660Z,9.96
2023-08-10T01:27:02.548Z,9.85
2023-08-10T01:29:30.545Z,9.87
2023-08-10T01:31:58.408Z,9.90
2023-08-10T01:34:26.041Z,9.83
2023-08-10T01:36:53.704Z,10.08
2023-08-10T01:39:21.336Z,10.17
2023-08-10T01:41:49.014Z,9.88
2023-08-10T01:44:17.974Z,9.79
2023-08-10T01:46:48.484Z,9.80
2023-08-10T01:49:19.223Z,9.80
2023-08-10T01:51:49.378Z,9.71
2023-08-10T01:54:19.229Z,9.65
2023-08-10T01:56:47.196Z,9.67
2023-08-10T01:59:14.862Z,9.52
2023-08-10T02:01:43.947Z,9.41
2023-08-10T02:04:11.640Z,9.48
2023-08-10T02:06:41.655Z,9.56
2023-08-10T02:09:09.905Z,9.55
2023-08-10T02:11:37.509Z,9.73
2023-08-10T02:14:05.143Z,9.67
2023-08-10T02:16:32.759Z,9.27
2023-08-10T02:19:01.697Z,9.26
2023-08-10T02:21:29.293Z,9.22
2023-08-10T02:23:56.981Z,9.24
2023-08-10T02:26:25.020Z,9.25
2023-08-10T02:28:52.713Z,9.23
2023-08-10T02:31:20.366Z,9.45
2023-08-10T02:33:48.176Z,9.36
2023-08-10T02:36:17.180Z,9.37
2023-08-10T02:38:45.068Z,9.41
2023-08-10T02:41:12.702Z,9.52
2023-08-10T02:43:40.297Z,9.64
2023-08-10T02:46:08.017Z,9.35
2023-08-10T02:48:35.930Z,9.18
2023-08-10T02:51:03.641Z,9.18
2023-08-10T02:53:32.566Z,9.18
2023-08-10T02:56:00.177Z,9.13
2023-08-10T02:58:27.753Z,9.18
2023-08-10T03:00:55.421Z,9.44
2023-08-10T03:03:23.894Z,9.55
2023-08-10T03:05:51.534Z,9.14
2023-08-10T03:08:19.152Z,9.17
2023-08-10T03:10:48.121Z,9.16
2023-08-10T03:13:15.741Z,9.24
2023-08-10T03:15:43.390Z,9.61
2023-08-10T03:18:11.174Z,9.43
2023-08-10T03:20:38.806Z,9.05
2023-08-10T03:23:07.082Z,9.19
2023-08-10T03:25:34.687Z,9.15
2023-08-10T03:28:03.646Z,9.21
2023-08-10T03:30:31.271Z,9.40
2023-08-10T03:32:58.880Z,9.47
2023-08-10T03:35:26.714Z,9.66
2023-08-10T03:37:54.298Z,9.62
2023-08-10T03:40:22.004Z,9.82
2023-08-10T03:42:49.611Z,9.95
2023-08-10T03:45:18.763Z,9.89
2023-08-10T03:47:46.430Z,9.73
2023-08-10T03:50:14.116Z,9.97
2023-08-10T03:52:41.799Z,10.13
2023-08-10T03:55:09.817Z,10.11
2023-08-10T03:57:37.425Z,10.14
2023-08-10T04:00:06.276Z,9.97
2023-08-10T04:02:35.418Z,9.70
2023-08-10T04:05:07.123Z,10.22
2023-08-10T04:07:35.473Z,9.79
2023-08-10T04:10:03.303Z,9.57
2023-08-10T04:12:30.940Z,9.62
2023-08-10T04:14:58.571Z,9.71
2023-08-10T04:17:26.237Z,9.89
2023-08-10T04:19:55.230Z,10.14
2023-08-10T04:22:22.850Z,10.30
2023-08-10T04:24:50.924Z,10.14
2023-08-10T04:27:19.333Z,10.19
2023-08-10T04:29:47.389Z,10.40
2023-08-10T04:32:15.577Z,10.85
2023-08-10T04:34:43.391Z,11.11
2023-08-10T04:37:15.257Z,11.08
2023-08-10T04:39:44.592Z,10.88
2023-08-10T04:42:12.226Z,10.73
2023-08-10T04:44:40.015Z,10.76
2023-08-10T04:47:08.099Z,10.68
2023-08-10T04:49:35.800Z,10.63
2023-08-10T04:52:04.214Z,10.73
2023-08-10T04:54:33.718Z,10.96
2023-08-10T04:57:01.385Z,11.03
2023-08-10T04:59:29.075Z,10.98
2023-08-10T05:01:56.954Z,11.19
2023-08-10T05:04:24.741Z,11.42
2023-08-10T05:06:52.744Z,11.73
2023-08-10T05:09:20.354Z,11.72
2023-08-10T05:11:49.333Z,11.66
2023-08-10T05:14:17.011Z,11.68
2023-08-10T05:16:44.650Z,11.82
2023-08-10T05:19:12.267Z,11.86
2023-08-10T05:21:39.936Z,11.73
2023-08-10T05:24:08.774Z,11.99
2023-08-10T05:26:36.537Z,11.84
2023-08-10T05:29:05.943Z,11.64
2023-08-10T05:31:34.855Z,11.90
2023-08-10T05:34:02.474Z,12.05
2023-08-10T05:36:30.084Z,11.91
2023-08-10T05:38:57.724Z,11.95
2023-08-10T05:41:25.334Z,12.47
2023-08-10T05:43:53.168Z,12.50
2023-08-10T05:46:22.246Z,12.87
2023-08-10T05:48:50.468Z,13.02
2023-08-10T05:51:18.108Z,12.97
2023-08-10T05:53:46.118Z,13.46
2023-08-10T05:56:13.761Z,13.56
2023-08-10T05:58:41.358Z,12.84
2023-08-10T06:01:09.047Z,12.73
2023-08-10T06:03:38.763Z,13.32
2023-08-10T06:06:07.956Z,13.51
2023-08-10T06:08:35.665Z,13.37
2023-08-10T06:11:03.676Z,13.48
2023-08-10T06:13:32.301Z,13.80
2023-08-10T06:15:59.982Z,13.90
2023-08-10T06:18:27.630Z,13.46
2023-08-10T06:20:56.866Z,13.38
2023-08-10T06:23:24.709Z,13.18
2023-08-10T06:25:52.846Z,13.60
2023-08-10T06:28:20.727Z,13.93
2023-08-10T06:30:48.400Z,14.04
2023-08-10T06:33:16.572Z,13.79
2023-08-10T06:35:45.060Z,13.58
2023-08-10T06:38:14.837Z,13.51
2023-08-10T06:40:42.823Z,14.13
2023-08-10T06:43:10.470Z,14.17
2023-08-10T06:45:38.070Z,14.40
2023-08-10T06:48:06.595Z,14.62
2023-08-10T06:50:34.257Z,14.67
2023-08-10T06:53:02.252Z,14.82
2023-08-10T06:55:31.524Z,14.71
2023-08-10T06:58:00.744Z,14.20
2023-08-10T07:03:00.475Z,15.19
2023-08-10T07:05:28.281Z,15.38
2023-08-10T07:07:56.359Z,15.69
2023-08-10T07:10:24.988Z,16.05
2023-08-10T07:12:54.015Z,16.21
2023-08-10T07:15:21.691Z,16.27
2023-08-10T07:17:49.441Z,15.61
2023-08-10T07:20:19.867Z,15.85
2023-08-10T07:22:48.720Z,15.64
2023-08-10T07:25:18.355Z,15.79
2023-08-10T07:27:47.248Z,16.07
2023-08-10T07:30:16.689Z,16.49
2023-08-10T07:32:44.986Z,15.60
2023-08-10T07:35:13.067Z,15.40
2023-08-10T07:37:42.068Z,16.30
2023-08-10T07:40:12.413Z,17.05
2023-08-10T07:42:40.442Z,17.80
2023-08-10T07:45:10.906Z,17.60
2023-08-10T07:47:40.488Z,18.35
2023-08-10T07:50:09.175Z,17.04
2023-08-10T07:52:36.826Z,17.05
2023-08-10T07:55:04.698Z,18.25
2023-08-10T07:57:32.473Z,18.59
2023-08-10T08:00:05.817Z,18.72
2023-08-10T08:02:33.616Z,19.06
2023-08-10T08:05:02.696Z,17.66
2023-08-10T08:07:31.809Z,19.55
2023-08-10T08:09:59.558Z,17.92
2023-08-10T08:12:27.872Z,18.57
2023-08-10T08:14:56.001Z,17.96
2023-08-10T08:17:24.587Z,17.93
2023-08-10T08:19:56.854Z,17.29
2023-08-10T08:22:25.857Z,17.15
2023-08-10T08:24:53.630Z,19.99
2023-08-10T08:27:21.340Z,19.03
2023-08-10T08:29:48.950Z,17.46
2023-08-10T08:32:26.812Z,17.63
2023-08-10T08:34:58.989Z,17.09
2023-08-10T08:37:27.961Z,17.15
2023-08-10T08:39:55.641Z,18.69
2023-08-10T08:42:23.500Z,16.80
2023-08-10T08:44:51.303Z,17.28
2023-08-10T08:47:18.988Z,18.34
2023-08-10T08:49:46.768Z,19.91
2023-08-10T08:52:14.758Z,18.17
2023-08-10T08:54:43.850Z,18.85
2023-08-10T08:57:11.464Z,20.18
2023-08-10T08:59:39.116Z,18.39
2023-08-10T09:02:17.491Z,17.98
2023-08-10T09:04:46.489Z,21.44
2023-08-10T09:07:14.372Z,20.65
2023-08-10T09:09:43.984Z,19.49
2023-08-10T09:12:31.076Z,18.67
2023-08-10T09:15:04.480Z,20.68
2023-08-10T09:17:32.433Z,20.61
2023-08-10T09:20:00.258Z,20.55
2023-08-10T09:22:33.669Z,21.32
2023-08-10T09:25:03.181Z,20.16
2023-08-10T09:27:31.309Z,20.51
2023-08-10T09:29:59.329Z,21.36
2023-08-10T09:32:27.291Z,21.83
2023-08-10T09:34:55.245Z,20.52
2023-08-10T09:37:25.175Z,21.15
2023-08-10T09:39:56.395Z,22.20
2023-08-10T09:42:25.508Z,23.13
2023-08-10T09:44:53.883Z,22.11
2023-08-10T09:47:22.072Z,20.16
2023-08-10T09:49:57.842Z,21.27
2023-08-10T09:52:27.683Z,21.02
2023-08-10T09:54:57.280Z,21.10
2023-08-10T09:57:28.872Z,21.07
2023-08-10T09:59:56.957Z,20.75
2023-08-10T10:02:25.546Z,19.89
2023-08-10T10:04:54.114Z,18.83
2023-08-10T10:07:26.095Z,22.96
2023-08-10T10:09:54.029Z,21.95
2023-08-10T10:12:22.157Z,19.28
2023-08-10T10:14:51.383Z,20.88
2023-08-10T10:17:20.749Z,19.53
2023-08-10T10:19:52.708Z,21.20
2023-08-10T10:22:21.727Z,20.71
2023-08-10T10:24:50.860Z,19.12
2023-08-10T10:27:18.446Z,19.42
2023-08-10T10:29:53.825Z,20.64
2023-08-10T10:32:23.984Z,23.60
2023-08-10T10:34:53.960Z,23.79
2023-08-10T10:37:29.076Z,22.51
2023-08-10T10:40:15.369Z,23.44
2023-08-10T10:43:07.035Z,23.78
2023-08-10T10:45:40.896Z,21.72
2023-08-10T10:48:08.892Z,19.60
2023-08-10T10:50:37.492Z,24.17
2023-08-10T10:53:06.573Z,22.94
2023-08-10T10:55:42.998Z,23.91
2023-08-10T10:58:13.903Z,24.80
2023-08-10T11:00:49.342Z,23.36
2023-08-10T11:03:19.315Z,23.20
2023-08-10T11:05:47.979Z,24.93
2023-08-10T11:08:17.143Z,20.86
2023-08-10T11:10:45.545Z,20.95
2023-08-10T11:15:41.064Z,21.07
2023-08-10T11:18:15.386Z,25.00
2023-08-10T11:20:47.143Z,23.09
2023-08-10T11:23:14.866Z,24.65
2023-08-10T11:25:50.504Z,25.08
2023-08-10T11:28:19.996Z,23.43
2023-08-10T11:30:48.083Z,23.84
2023-08-10T11:35:51.191Z,22.53
2023-08-10T11:38:18.946Z,22.88
2023-08-10T11:40:46.931Z,20.65
2023-08-10T11:43:17.010Z,20.63
2023-08-10T11:45:45.052Z,24.07
2023-08-10T11:48:17.483Z,24.63
2023-08-10T11:50:46.863Z,25.80
2023-08-10T11:53:16.508Z,21.49
2023-08-10T11:55:46.112Z,23.92
2023-08-10T11:58:16.436Z,23.97
2023-08-10T12:00:48.985Z,25.06
2023-08-10T12:03:18.052Z,21.23
2023-08-10T12:05:48.905Z,20.62
2023-08-10T12:08:18.628Z,22.38
2023-08-10T12:10:49.247Z,20.50
2023-08-10T12:13:18.786Z,21.94
2023-08-10T12:15:47.905Z,23.88
2023-08-10T12:18:17.289Z,25.98
2023-08-10T12:20:46.669Z,24.44
2023-08-10T12:23:18.433Z,22.61
2023-08-10T12:25:47.576Z,22.26
2023-08-10T12:28:17.113Z,21.02
2023-08-10T12:30:45.832Z,22.91
2023-08-10T12:33:14.299Z,24.39
2023-08-10T12:35:41.946Z,26.43
2023-08-10T12:38:10.902Z,25.85
2023-08-10T12:40:41.690Z,21.44
2023-08-10T12:43:10.082Z,22.52
2023-08-10T12:45:38.941Z,22.02
2023-08-10T12:48:07.752Z,23.22
2023-08-10T12:50:35.650Z,24.40
2023-08-10T12:53:03.330Z,28.26
2023-08-10T12:55:32.532Z,27.49
2023-08-10T12:58:01.760Z,25.46
2023-08-10T13:00:29.396Z,24.21
2023-08-10T13:02:57.220Z,27.37
2023-08-10T13:05:25.037Z,24.17
2023-08-10T13:07:52.664Z,27.50
2023-08-10T13:10:20.286Z,26.92
2023-08-10T13:12:47.988Z,26.67
2023-08-10T13:15:17.000Z,23.93
2023-08-10T13:17:44.735Z,22.12
2023-08-10T13:20:12.905Z,26.48
2023-08-10T13:22:41.117Z,28.65
2023-08-10T13:25:09.679Z,25.46
2023-08-10T13:27:37.325Z,24.99
2023-08-10T13:30:05.775Z,24.82
2023-08-10T13:32:34.834Z,26.07
2023-08-10T13:35:03.128Z,25.26
2023-08-10T13:37:36.086Z,24.88
2023-08-10T13:40:04.139Z,28.50
2023-08-10T13:42:34.182Z,28.21
2023-08-10T13:45:01.987Z,28.10
2023-08-10T13:47:29.689Z,27.49
2023-08-10T13:49:59.191Z,23.06
2023-08-10T13:52:26.904Z,22.59
2023-08-10T13:54:54.582Z,25.22
2023-08-10T13:57:22.596Z,29.70
2023-08-10T13:59:50.206Z,29.59
2023-08-10T14:02:19.234Z,25.71
2023-08-10T14:04:46.934Z,23.36
2023-08-10T14:07:16.075Z,26.01
2023-08-10T14:09:44.179Z,25.13
2023-08-10T14:12:11.808Z,23.75
2023-08-10T14:14:39.421Z,26.01
2023-08-10T14:17:07.761Z,28.76
2023-08-10T14:19:35.782Z,30.11
2023-08-10T14:22:03.571Z,26.31
2023-08-10T14:24:32.560Z,24.95
2023-08-10T14:27:00.493Z,27.56
2023-08-10T14:29:28.226Z,25.47
2023-08-10T14:31:55.849Z,29.25
2023-08-10T14:34:25.071Z,29.09
2023-08-10T14:36:53.374Z,30.47
2023-08-10T14:39:21.109Z,27.19
2023-08-10T14:41:51.001Z,24.68
2023-08-10T14:44:18.879Z,22.98
2023-08-10T14:46:47.160Z,24.89
2023-08-10T14:49:14.827Z,25.04
2023-08-10T14:51:42.532Z,22.93
2023-08-10T14:54:10.164Z,26.81
2023-08-10T14:56:38.785Z,25.58
2023-08-10T14:59:07.938Z,25.25
2023-08-10T15:01:35.550Z,25.52
2023-08-10T15:04:06.759Z,26.42
2023-08-10T15:06:34.406Z,24.93
2023-08-10T15:09:02.065Z,29.06
2023-08-10T15:11:29.943Z,26.22
2023-08-10T15:13:57.688Z,25.57
2023-08-10T15:16:26.837Z,23.88
2023-08-10T15:18:54.538Z,27.32
2023-08-10T15:21:22.523Z,25.39
2023-08-10T15:23:50.445Z,24.34
2023-08-10T15:26:18.521Z,24.19
2023-08-10T15:28:48.899Z,23.52
2023-08-10T15:31:16.760Z,24.54
2023-08-10T15:33:45.802Z,24.06
2023-08-10T15:36:14.089Z,25.02
2023-08-10T15:38:42.137Z,22.50
2023-08-10T15:41:09.794Z,23.65
2023-08-10T15:43:37.381Z,26.86
2023-08-10T15:46:06.774Z,26.33
2023-08-10T15:48:34.422Z,26.87
2023-08-10T15:51:03.383Z,25.02
2023-08-10T15:53:31.002Z,25.41
2023-08-10T15:55:58.613Z,24.73
2023-08-10T15:58:26.250Z,23.90
2023-08-10T16:00:54.200Z,23.78
2023-08-10T16:03:22.017Z,24.14
2023-08-10T16:05:49.719Z,22.65
2023-08-10T16:08:19.990Z,22.81
2023-08-10T16:10:47.818Z,23.07
2023-08-10T16:13:15.454Z,24.05
2023-08-10T16:15:43.089Z,23.20
2023-08-10T16:18:10.763Z,23.30
2023-08-10T16:20:38.541Z,23.52
2023-08-10T16:23:06.865Z,23.84
2023-08-10T16:25:35.829Z,24.76
2023-08-10T16:28:03.914Z,24.91
2023-08-10T16:30:31.713Z,24.65
2023-08-10T16:32:59.377Z,24.21
2023-08-10T16:35:27.028Z,23.04
2023-08-10T16:37:56.041Z,26.02
2023-08-10T16:40:23.766Z,24.80
2023-08-10T16:42:52.698Z,23.57
2023-08-10T16:45:20.429Z,24.28
2023-08-10T16:47:48.144Z,23.31
2023-08-10T16:50:16.285Z,25.04
2023-08-10T16:52:44.148Z,22.63
2023-08-10T16:55:12.739Z,23.90
2023-08-10T16:57:40.456Z,24.81
2023-08-10T17:00:10.892Z,22.38
2023-08-10T17:02:38.758Z,24.88
2023-08-10T17:05:08.069Z,25.07
2023-08-10T17:07:35.708Z,26.20
2023-08-10T17:10:03.374Z,25.22
2023-08-10T17:12:30.975Z,27.35
2023-08-10T17:14:58.630Z,22.52
2023-08-10T17:17:27.691Z,25.80
2023-08-10T17:19:56.399Z,26.82
2023-08-10T17:22:24.314Z,23.45
2023-08-10T17:24:52.022Z,24.49
2023-08-10T17:27:19.632Z,23.43
2023-08-10T17:29:52.565Z,22.76
2023-08-10T17:32:20.353Z,23.83
2023-08-10T17:34:50.092Z,23.17
2023-08-10T17:37:17.744Z,22.28
2023-08-10T17:39:45.437Z,22.54
2023-08-10T17:42:13.073Z,23.62
2023-08-10T17:44:40.726Z,25.18
2023-08-10T17:47:08.421Z,22.50
2023-08-10T17:49:36.227Z,23.04
2023-08-10T17:52:06.149Z,22.55
2023-08-10T17:54:34.117Z,22.73
2023-08-10T17:57:01.752Z,23.54
2023-08-10T17:59:29.467Z,22.43
2023-08-10T18:01:57.132Z,23.80
2023-08-10T18:04:24.760Z,22.81
2023-08-10T18:06:52.397Z,21.79
2023-08-10T18:09:21.315Z,22.45
2023-08-10T18:11:49.393Z,22.73
2023-08-10T18:14:17.182Z,22.97
2023-08-10T18:16:44.818Z,23.54
2023-08-10T18:19:12.542Z,23.07
2023-08-10T18:21:40.517Z,23.70
2023-08-10T18:24:08.445Z,23.56
2023-08-10T18:26:37.406Z,23.87
2023-08-10T18:29:05.897Z,23.10
2023-08-10T18:31:33.522Z,19.85
2023-08-10T18:34:01.301Z,18.90
2023-08-10T18:36:28.892Z,18.72
2023-08-10T18:38:56.594Z,18.15
2023-08-10T18:41:24.306Z,17.73
2023-08-10T18:43:53.657Z,17.36
2023-08-10T18:46:21.381Z,17.21
2023-08-10T18:48:49.011Z,16.99
2023-08-10T18:51:16.625Z,16.92
2023-08-10T18:53:44.211Z,16.92
2023-08-10T18:56:12.975Z,16.69
2023-08-10T18:58:40.595Z,16.58
2023-08-10T19:01:09.679Z,16.48
2023-08-10T19:03:37.347Z,16.21
2023-08-10T19:06:05.115Z,16.06
2023-08-10T19:08:32.969Z,16.51
2023-08-10T19:11:00.549Z,15.85
2023-08-10T19:13:28.195Z,15.96
2023-08-10T19:16:03.146Z,15.72
2023-08-10T19:18:32.283Z,15.50
2023-08-10T19:20:59.984Z,15.44
2023-08-10T19:23:27.852Z,15.32
2023-08-10T19:25:55.459Z,15.20
2023-08-10T19:28:23.131Z,15.12
2023-08-10T19:30:52.912Z,14.95
2023-08-10T19:33:20.633Z,14.77
2023-08-10T19:35:51.500Z,14.68
2023-08-10T19:38:19.455Z,14.76
2023-08-10T19:40:47.258Z,14.39
2023-08-10T19:43:14.908Z,14.33
2023-08-10T19:45:42.665Z,14.37
2023-08-10T19:48:10.520Z,14.31
2023-08-10T19:50:38.193Z,14.17
2023-08-10T19:53:07.983Z,14.08
2023-08-10T19:55:35.630Z,14.07
2023-08-10T19:58:03.430Z,14.09
2023-08-10T20:00:33.698Z,13.98
2023-08-10T20:03:02.509Z,13.94
2023-08-10T20:05:30.346Z,13.91
2023-08-10T20:07:58.092Z,13.80
2023-08-10T20:10:28.359Z,13.73
2023-08-10T20:12:55.966Z,13.65
2023-08-10T20:15:23.716Z,13.65
2023-08-10T20:17:51.459Z,13.46
2023-08-10T20:20:20.009Z,13.41
2023-08-10T20:22:47.787Z,13.47
2023-08-10T20:25:16.437Z,13.31
2023-08-10T20:27:45.690Z,13.28
2023-08-10T20:30:14.485Z,13.17
2023-08-10T20:32:42.077Z,13.17
2023-08-10T20:35:10.550Z,13.02
2023-08-10T20:37:38.345Z,13.08
2023-08-10T20:40:06.903Z,12.94
2023-08-10T20:42:34.509Z,12.97
2023-08-10T20:45:03.927Z,13.21
2023-08-10T20:47:34.305Z,13.16
2023-08-10T20:50:02.024Z,13.19
2023-08-10T20:52:29.645Z,12.98
2023-08-10T20:54:57.401Z,13.01
2023-08-10T20:57:25.082Z,13.77
2023-08-10T20:59:52.657Z,13.43
2023-08-10T21:02:21.688Z,12.84
2023-08-10T21:04:49.317Z,12.71
2023-08-10T21:07:16.948Z,12.69
2023-08-10T21:09:44.552Z,12.74
2023-08-10T21:12:12.174Z,12.88
2023-08-10T21:14:39.814Z,12.84
2023-08-10T21:19:36.685Z,12.80
2023-08-10T21:22:04.794Z,12.98
2023-08-10T21:24:32.365Z,12.71
2023-08-10T21:26:59.961Z,12.54
2023-08-10T21:29:27.581Z,12.37
2023-08-10T21:31:55.244Z,12.64
2023-08-10T21:34:22.871Z,12.33
2023-08-10T21:36:51.853Z,12.24
2023-08-10T21:39:19.630Z,12.13
2023-08-10T21:41:47.292Z,12.25
2023-08-10T21:44:14.915Z,12.06
2023-08-10T21:46:42.624Z,12.03
2023-08-10T21:49:10.233Z,12.04
2023-08-10T21:51:38.145Z,12.15
2023-08-10T21:54:07.284Z,12.51
2023-08-10T21:56:34.930Z,12.40
2023-08-10T21:59:02.586Z,12.76
2023-08-10T22:01:30.187Z,12.25
2023-08-10T22:03:57.791Z,12.11
2023-08-10T22:06:25.387Z,12.15
2023-08-10T22:08:53.030Z,11.91
2023-08-10T22:11:22.008Z,11.76
2023-08-10T22:13:49.633Z,11.79
2023-08-10T22:16:17.306Z,11.77
2023-08-10T22:18:44.983Z,11.99
2023-08-10T22:21:13.290Z,12.05
2023-08-10T22:23:40.929Z,11.97
2023-08-10T22:26:10.317Z,12.18
2023-08-10T22:28:39.522Z,12.18
2023-08-10T22:31:07.194Z,12.17
2023-08-10T22:33:35.027Z,12.13
2023-08-10T22:36:02.860Z,12.02
2023-08-10T22:38:30.491Z,12.00
2023-08-10T22:40:58.218Z,12.06
2023-08-10T22:43:25.932Z,11.94
2023-08-10T22:45:55.441Z,11.92
2023-08-10T22:48:23.092Z,12.01
2023-08-10T22:50:50.713Z,12.23
2023-08-10T22:53:18.322Z,12.07
2023-08-10T22:55:45.938Z,12.04
2023-08-10T22:58:13.534Z,11.98
2023-08-10T23:00:41.437Z,11.84
2023-08-10T23:03:10.569Z,11.85
2023-08-10T23:05:38.256Z,11.68
2023-08-10T23:08:06.636Z,11.69
2023-08-10T23:10:34.614Z,11.63
2023-08-10T23:13:07.102Z,11.67
2023-08-10T23:15:35.337Z,11.68
2023-08-10T23:18:03.032Z,11.66
2023-08-10T23:20:32.089Z,11.52
2023-08-10T23:22:59.729Z,11.45
2023-08-10T23:25:27.367Z,11.40
2023-08-10T23:27:55.030Z,11.32
2023-08-10T23:30:23.322Z,11.33
2023-08-10T23:32:51.257Z,11.32
2023-08-10T23:35:19.062Z,11.29
2023-08-10T23:37:49.415Z,11.29
2023-08-10T23:40:17.484Z,11.29
2023-08-10T23:42:45.221Z,11.33
2023-08-10T23:45:14.213Z,11.28
2023-08-10T23:47:41.949Z,11.15
2023-08-10T23:50:10.372Z,11.30
2023-08-10T23:52:38.303Z,11.26
2023-08-10T23:55:09.509Z,11.12
2023-08-10T23:57:37.727Z,11.10
